»·PEaware :: N9196G KSBS-KTEX

N9196G :: KSBS-KTEX

FLIGHT INFORMATION

Flight Status: Arrived
Operator: Privately registered:
United States
More flights under this callsign
Pilot: Christopher N. (41122)
Aircraft: SOCATA TBM-900
(TBM9)
More flights by this aircraft type
Origin: KSBS Steamboat Springs/Adams
United States
Destination: KTEX Telluride Regl
United States
More flights between these airports :: More routes between these airports
Route: BQZ SBURG V220 RLG V361 MTJ V68 ETL
File this flight plan on PilotEdge
Remarks: ODP departure runway 32
Altitude:
(Current/Filed)
20,000ft
Speed:
(Current/Filed)
250kts
Departed: 01-Dec-23 01:48 PM
Arrived: 01-Dec-23 02:50 PM
Distance/Time
Traveled:
161nm/1:02
Distance/Time
To Go:
Arrived

Flight Plot

Page will automatically refresh every two minutes.

Flight plan parsing failed; only flown route is shown


Map Options




Map Legend


Flown Route
Filed Route
Departure Airport
Arrival Airport
Navaid (VOR, NDB)
Fix

Horizontal Profiles

Position Reports

Time Latitude Longitude Heading Altitude Ground
Speed
01-Dec-23 13:33 40.517830 -106.865738 65 6853ft 0kts
01-Dec-23 13:34 40.517830 -106.865738 65 6853ft 0kts
01-Dec-23 13:35 40.517830 -106.865738 65 6853ft 0kts
01-Dec-23 13:36 40.517830 -106.865738 65 6853ft 0kts
01-Dec-23 13:37 40.517830 -106.865738 65 6853ft 0kts
01-Dec-23 13:38 40.517830 -106.865738 65 6853ft 0kts
01-Dec-23 13:39 40.517830 -106.865738 65 6853ft 0kts
01-Dec-23 13:40 40.517830 -106.865738 65 6853ft 0kts
01-Dec-23 13:41 40.517427 -106.865527 232 6854ft 5kts
01-Dec-23 13:42 40.516313 -106.865448 240 6856ft 0kts
01-Dec-23 13:43 40.516313 -106.865448 241 6856ft 0kts
01-Dec-23 13:44 40.516313 -106.865448 241 6856ft 0kts
01-Dec-23 13:45 40.513081 -106.864133 153 6860ft 19kts
01-Dec-23 13:46 40.511133 -106.862881 332 6852ft 3kts
01-Dec-23 13:47 40.535647 -106.880764 321 7881ft 147kts
01-Dec-23 13:48 40.519471 -106.910876 161 10483ft 160kts
01-Dec-23 13:49 40.482181 -106.875442 147 13136ft 170kts
01-Dec-23 13:50 40.436565 -106.875386 190 15858ft 171kts
01-Dec-23 13:51 40.388108 -106.880938 190 18738ft 180kts
01-Dec-23 13:52 40.331917 -106.887349 188 19886ft 241kts
01-Dec-23 13:53 40.262834 -106.876267 128 19850ft 277kts
01-Dec-23 13:54 40.215647 -106.794576 127 19839ft 286kts
01-Dec-23 13:55 40.166220 -106.712528 127 19838ft 288kts
01-Dec-23 13:56 40.116512 -106.630238 127 19838ft 289kts
01-Dec-23 13:57 40.066746 -106.548057 127 19838ft 287kts
01-Dec-23 13:58 40.016538 -106.466858 138 19809ft 287kts
01-Dec-23 13:59 39.948326 -106.486333 216 19832ft 266kts
01-Dec-23 14:00 39.885205 -106.537494 216 19831ft 266kts
01-Dec-23 14:01 39.822051 -106.588426 216 19835ft 266kts
01-Dec-23 14:02 39.758951 -106.639203 216 19835ft 266kts
01-Dec-23 14:03 39.695946 -106.689790 216 19835ft 266kts
01-Dec-23 14:04 39.632865 -106.740326 216 19835ft 266kts
01-Dec-23 14:05 39.569819 -106.790727 216 19835ft 266kts
01-Dec-23 14:06 39.506804 -106.841008 216 19835ft 266kts
01-Dec-23 14:07 39.443530 -106.891384 215 19828ft 265kts
01-Dec-23 14:08 39.390200 -106.955103 227 19822ft 260kts
01-Dec-23 14:09 39.337537 -107.019778 226 19817ft 260kts
01-Dec-23 14:10 39.284611 -107.084563 226 19817ft 260kts
01-Dec-23 14:11 39.231965 -107.148886 226 19817ft 260kts
01-Dec-23 14:12 39.179164 -107.213261 226 19817ft 260kts
01-Dec-23 14:13 39.126236 -107.277652 226 19817ft 260kts
01-Dec-23 14:14 39.073396 -107.341792 226 19829ft 260kts
01-Dec-23 14:15 39.020581 -107.405755 226 19845ft 260kts
01-Dec-23 14:16 38.967625 -107.469754 226 19871ft 260kts
01-Dec-23 14:17 38.913926 -107.534516 226 19040ft 265kts
01-Dec-23 14:18 38.859631 -107.599835 226 18027ft 266kts
01-Dec-23 14:19 38.805530 -107.664780 225 17012ft 265kts
01-Dec-23 14:20 38.751240 -107.729846 225 16032ft 264kts
01-Dec-23 14:21 38.696909 -107.786319 206 16028ft 247kts
01-Dec-23 14:22 38.634797 -107.822918 207 16025ft 243kts
01-Dec-23 14:23 38.573374 -107.859491 207 16026ft 242kts
01-Dec-23 14:24 38.512105 -107.895927 207 16027ft 242kts
01-Dec-23 14:25 38.453190 -107.940611 213 15827ft 248kts
01-Dec-23 14:26 38.392763 -107.987403 213 15229ft 247kts
01-Dec-23 14:27 38.334337 -108.032565 213 14613ft 241kts
01-Dec-23 14:28 38.276548 -108.077149 213 14041ft 238kts
01-Dec-23 14:29 38.221084 -108.119860 213 14039ft 224kts
01-Dec-23 14:31 38.166880 -108.161536 213 13869ft 223kts
01-Dec-23 14:32 38.113242 -108.202689 213 13269ft 222kts
01-Dec-23 14:33 38.062435 -108.241603 213 13111ft 205kts
01-Dec-23 14:34 38.056773 -108.292222 321 13124ft 184kts
01-Dec-23 14:35 38.096429 -108.335622 294 13081ft 190kts
01-Dec-23 14:36 38.061591 -108.355983 126 13107ft 203kts
01-Dec-23 14:37 38.048823 -108.287155 110 13113ft 203kts
01-Dec-23 14:38 38.021949 -108.225234 115 13058ft 192kts
01-Dec-23 14:39 38.006804 -108.161652 102 13021ft 189kts
01-Dec-23 14:40 37.993143 -108.096048 102 12560ft 188kts
01-Dec-23 14:41 37.980411 -108.035226 102 11543ft 171kts
01-Dec-23 14:42 37.962886 -107.979288 123 10806ft 167kts
01-Dec-23 14:43 37.935239 -107.934524 127 10817ft 158kts
01-Dec-23 14:44 37.923406 -107.886514 70 10790ft 130kts
01-Dec-23 14:45 37.947927 -107.883860 296 10341ft 99kts
01-Dec-23 14:46 37.950816 -107.917562 253 10145ft 111kts
01-Dec-23 14:47 37.933650 -107.890539 107 10498ft 126kts
01-Dec-23 14:48 37.939492 -107.859200 355 10272ft 116kts
01-Dec-23 14:49 37.949806 -107.889684 289 9255ft 94kts
01-Dec-23 14:50 37.953192 -107.905577 110 9029ft 8kts
01-Dec-23 14:51 37.952439 -107.901479 48 9048ft 7kts
01-Dec-23 14:52 37.953312 -107.901185 333 9061ft 0kts
01-Dec-23 14:53 37.953828 -107.900953 128 9069ft 0kts
01-Dec-23 14:54 37.953828 -107.900953 128 9069ft 0kts
01-Dec-23 14:55 37.953828 -107.900953 128 9069ft 0kts
01-Dec-23 14:56 37.953828 -107.900953 128 9069ft 0kts
01-Dec-23 14:56 37.953876 -107.901035 141 9070ft 0kts
01-Dec-23 14:57 37.953988 -107.901019 198 9071ft 0kts

Navigation Log

Ident Type
Flight plan parsing failed, navigation log unavailable